createdAt,value
2023-05-19T00:00:17.996Z,12.20
2023-05-19T00:02:51.039Z,12.20
2023-05-19T00:05:25.203Z,12.20
2023-05-19T00:08:01.002Z,12.10
2023-05-19T00:10:34.696Z,12.10
2023-05-19T00:13:09.509Z,12.10
2023-05-19T00:15:45.008Z,12.10
2023-05-19T00:18:18.031Z,12.10
2023-05-19T00:20:49.773Z,12.10
2023-05-19T00:23:23.879Z,12.10
2023-05-19T00:25:55.740Z,12.10
2023-05-19T00:28:29.743Z,12.00
2023-05-19T00:31:02.231Z,12.00
2023-05-19T00:33:35.321Z,11.90
2023-05-19T00:36:08.406Z,11.90
2023-05-19T00:38:43.601Z,11.80
2023-05-19T00:41:15.430Z,11.80
2023-05-19T00:43:47.122Z,11.80
2023-05-19T00:46:19.329Z,11.90
2023-05-19T00:48:53.187Z,11.90
2023-05-19T00:51:27.276Z,11.90
2023-05-19T00:53:59.069Z,11.90
2023-05-19T00:56:31.169Z,11.80
2023-05-19T00:59:03.593Z,11.80
2023-05-19T01:01:36.750Z,11.80
2023-05-19T01:04:10.122Z,11.80
2023-05-19T01:06:45.811Z,11.80
2023-05-19T01:09:17.634Z,11.80
2023-05-19T01:11:49.213Z,11.80
2023-05-19T01:14:23.677Z,11.80
2023-05-19T01:16:59.484Z,11.80
2023-05-19T01:19:51.551Z,11.80
2023-05-19T01:22:46.335Z,11.90
2023-05-19T01:25:43.649Z,11.90
2023-05-19T01:28:34.867Z,11.90
2023-05-19T01:31:09.849Z,11.80
2023-05-19T01:33:42.894Z,11.80
2023-05-19T01:36:16.701Z,11.80
2023-05-19T01:38:49.106Z,11.70
2023-05-19T01:41:24.419Z,11.70
2023-05-19T01:43:57.156Z,11.70
2023-05-19T01:46:29.633Z,11.70
2023-05-19T01:49:02.515Z,11.60
2023-05-19T01:51:34.898Z,11.60
2023-05-19T01:54:07.918Z,11.70
2023-05-19T01:56:44.805Z,11.60
2023-05-19T01:59:28.791Z,11.60
2023-05-19T02:02:04.385Z,11.60
2023-05-19T02:04:40.013Z,11.60
2023-05-19T02:07:33.954Z,11.60
2023-05-19T02:10:12.367Z,11.60
2023-05-19T02:12:44.723Z,11.50
2023-05-19T02:15:19.194Z,11.50
2023-05-19T02:17:54.242Z,11.50
2023-05-19T02:20:28.606Z,11.40
2023-05-19T02:23:03.178Z,11.40
2023-05-19T02:25:35.660Z,11.30
2023-05-19T02:28:07.984Z,11.30
2023-05-19T02:30:40.141Z,11.20
2023-05-19T02:33:12.496Z,11.20
2023-05-19T02:35:47.428Z,11.20
2023-05-19T02:38:19.305Z,11.30
2023-05-19T02:40:52.933Z,11.20
2023-05-19T02:43:27.602Z,11.20
2023-05-19T02:45:59.554Z,11.10
2023-05-19T02:48:32.434Z,11.10
2023-05-19T02:51:04.586Z,11.10
2023-05-19T02:53:37.797Z,11.10
2023-05-19T02:56:16.035Z,11.10
2023-05-19T02:58:48.240Z,11.00
2023-05-19T03:01:21.406Z,11.00
2023-05-19T03:03:53.346Z,10.90
2023-05-19T03:06:25.448Z,10.90
2023-05-19T03:08:57.575Z,10.90
2023-05-19T03:11:32.355Z,10.80
2023-05-19T03:14:04.349Z,10.80
2023-05-19T03:16:37.654Z,10.80
2023-05-19T03:19:10.124Z,10.70
2023-05-19T03:21:43.532Z,10.70
2023-05-19T03:24:17.748Z,10.70
2023-05-19T03:26:49.853Z,10.70
2023-05-19T03:32:19.605Z,10.70
2023-05-19T03:34:51.586Z,10.70
2023-05-19T03:37:23.483Z,10.60
2023-05-19T03:39:55.413Z,10.60
2023-05-19T03:42:28.418Z,10.70
2023-05-19T03:45:01.168Z,10.60
2023-05-19T03:47:32.979Z,10.60
2023-05-19T03:50:10.114Z,10.60
2023-05-19T03:59:53.693Z,10.50
2023-05-19T04:02:25.868Z,10.50
2023-05-19T04:04:58.175Z,10.50
2023-05-19T04:07:30.518Z,10.50
2023-05-19T04:10:13.506Z,10.60
2023-05-19T04:12:45.246Z,10.60
2023-05-19T04:15:17.211Z,10.70
2023-05-19T04:17:49.927Z,10.70
2023-05-19T04:20:22.143Z,10.70
2023-05-19T04:22:54.412Z,10.80
2023-05-19T04:25:28.285Z,10.80
2023-05-19T04:28:03.678Z,10.80
2023-05-19T04:30:36.927Z,10.80
2023-05-19T04:33:10.115Z,10.90
2023-05-19T04:35:42.846Z,10.90
2023-05-19T04:38:17.716Z,10.90
2023-05-19T04:40:50.354Z,11.00
2023-05-19T04:43:22.419Z,11.10
2023-05-19T04:45:54.970Z,11.10
2023-05-19T04:48:27.610Z,11.10
2023-05-19T04:51:01.783Z,11.10
2023-05-19T04:53:33.516Z,11.10
2023-05-19T04:56:08.449Z,11.10
2023-05-19T04:58:42.041Z,11.10
2023-05-19T05:01:17.038Z,11.10
2023-05-19T05:03:51.086Z,11.20
2023-05-19T05:06:23.135Z,11.20
2023-05-19T05:08:58.155Z,11.30
2023-05-19T05:11:31.460Z,11.30
2023-05-19T05:14:08.144Z,11.40
2023-05-19T05:16:42.148Z,11.50
2023-05-19T05:19:14.770Z,11.60
2023-05-19T05:21:47.252Z,11.60
2023-05-19T05:24:19.892Z,11.70
2023-05-19T05:26:52.449Z,11.70
2023-05-19T05:29:23.954Z,11.80
2023-05-19T05:31:55.665Z,11.90
2023-05-19T05:34:27.697Z,11.90
2023-05-19T05:37:00.720Z,12.00
2023-05-19T05:39:32.476Z,12.00
2023-05-19T05:42:04.244Z,12.10
2023-05-19T05:44:35.929Z,12.20
2023-05-19T05:47:09.649Z,12.30
2023-05-19T05:49:44.177Z,12.30
2023-05-19T05:52:17.550Z,12.40
2023-05-19T05:54:50.300Z,12.40
2023-05-19T05:57:24.430Z,12.40
2023-05-19T05:59:56.700Z,12.50
2023-05-19T06:02:32.468Z,12.50
2023-05-19T06:05:05.961Z,12.60
2023-05-19T06:07:37.698Z,12.70
2023-05-19T06:10:11.433Z,12.80
2023-05-19T06:12:43.246Z,12.90
2023-05-19T06:15:15.022Z,13.10
2023-05-19T06:18:00.773Z,13.20
2023-05-19T06:20:33.629Z,13.30
2023-05-19T06:23:05.499Z,13.50
2023-05-19T06:25:37.610Z,13.50
2023-05-19T06:28:10.246Z,13.70
2023-05-19T06:30:41.973Z,13.90
2023-05-19T06:33:13.562Z,14.00
2023-05-19T06:35:45.160Z,14.20
2023-05-19T06:38:16.797Z,14.30
2023-05-19T06:40:49.080Z,14.30
2023-05-19T06:43:20.614Z,14.30
2023-05-19T06:45:52.690Z,14.20
2023-05-19T06:48:24.289Z,14.20
2023-05-19T06:50:56.022Z,14.20
2023-05-19T06:53:27.501Z,14.40
2023-05-19T06:56:00.213Z,14.40
2023-05-19T06:58:32.259Z,14.40
2023-05-19T07:01:04.930Z,14.40
2023-05-19T07:03:36.668Z,14.40
2023-05-19T07:06:08.674Z,14.60
2023-05-19T07:08:41.635Z,15.10
2023-05-19T07:11:14.204Z,15.30
2023-05-19T07:13:45.668Z,15.50
2023-05-19T07:16:17.271Z,15.50
2023-05-19T07:18:48.964Z,15.40
2023-05-19T07:21:20.709Z,15.30
2023-05-19T07:23:52.376Z,15.10
2023-05-19T07:26:23.905Z,15.10
2023-05-19T07:28:55.795Z,14.90
2023-05-19T07:31:27.513Z,15.00
2023-05-19T07:33:59.329Z,15.10
2023-05-19T07:36:31.318Z,15.30
2023-05-19T07:39:03.220Z,15.50
2023-05-19T07:41:36.376Z,15.50
2023-05-19T07:44:10.374Z,15.60
2023-05-19T07:46:41.897Z,15.40
2023-05-19T07:49:13.329Z,15.40
2023-05-19T07:51:45.028Z,15.50
2023-05-19T07:54:16.517Z,15.80
2023-05-19T07:56:48.160Z,16.10
2023-05-19T07:59:19.658Z,16.40
2023-05-19T08:01:51.219Z,16.60
2023-05-19T08:04:22.943Z,16.80
2023-05-19T08:06:55.561Z,17.00
2023-05-19T08:09:27.170Z,17.00
2023-05-19T08:11:58.933Z,16.90
2023-05-19T08:14:31.255Z,16.90
2023-05-19T08:17:04.848Z,16.90
2023-05-19T08:19:36.330Z,16.70
2023-05-19T08:22:07.878Z,16.60
2023-05-19T08:24:40.375Z,16.40
2023-05-19T08:27:11.852Z,16.30
2023-05-19T08:29:43.839Z,16.30
2023-05-19T08:32:15.458Z,16.30
2023-05-19T08:34:47.577Z,16.10
2023-05-19T08:37:19.777Z,16.10
2023-05-19T08:39:51.783Z,16.20
2023-05-19T08:42:23.310Z,16.40
2023-05-19T08:44:54.852Z,16.30
2023-05-19T08:47:29.583Z,16.10
2023-05-19T08:50:04.993Z,16.40
2023-05-19T08:52:47.847Z,16.70
2023-05-19T08:55:23.995Z,16.90
2023-05-19T08:57:55.788Z,16.90
2023-05-19T09:00:29.485Z,16.90
2023-05-19T09:03:17.677Z,16.90
2023-05-19T09:05:41.154Z,16.80
2023-05-19T09:08:12.606Z,16.90
2023-05-19T09:10:44.213Z,16.80
2023-05-19T09:13:15.846Z,16.70
2023-05-19T09:15:47.971Z,16.90
2023-05-19T09:18:19.524Z,17.00
2023-05-19T09:20:51.157Z,17.10
2023-05-19T09:23:22.949Z,17.40
2023-05-19T09:25:57.249Z,17.50
2023-05-19T09:28:30.735Z,17.50
2023-05-19T09:31:03.482Z,17.70
2023-05-19T09:33:36.947Z,17.80
2023-05-19T09:36:10.869Z,18.00
2023-05-19T09:38:42.513Z,18.10
2023-05-19T09:41:16.074Z,18.10
2023-05-19T09:43:50.584Z,17.50
2023-05-19T09:46:28.616Z,17.10
2023-05-19T09:49:00.670Z,17.30
2023-05-19T09:51:32.579Z,17.70
2023-05-19T09:54:05.045Z,17.90
2023-05-19T09:56:37.305Z,18.00
2023-05-19T09:59:09.404Z,17.80
2023-05-19T10:01:43.188Z,17.80
2023-05-19T10:04:16.502Z,17.60
2023-05-19T10:06:49.236Z,17.40
2023-05-19T10:09:23.467Z,17.00
2023-05-19T10:11:55.475Z,16.80
2023-05-19T10:14:30.297Z,16.70
2023-05-19T10:17:02.009Z,16.60
2023-05-19T10:19:34.264Z,16.60
2023-05-19T10:22:06.023Z,16.50
2023-05-19T10:24:37.554Z,16.50
2023-05-19T10:27:12.443Z,16.50
2023-05-19T10:29:47.512Z,16.40
2023-05-19T10:32:22.668Z,16.20
2023-05-19T10:35:02.974Z,16.10
2023-05-19T10:37:37.873Z,16.00
2023-05-19T10:40:14.275Z,15.90
2023-05-19T10:42:50.225Z,15.80
2023-05-19T10:45:24.549Z,15.90
2023-05-19T10:47:56.770Z,15.90
2023-05-19T10:50:28.435Z,15.90
2023-05-19T10:53:00.827Z,16.00
2023-05-19T10:55:48.519Z,16.10
2023-05-19T10:58:39.094Z,16.20
2023-05-19T11:01:12.483Z,16.30
2023-05-19T11:03:52.148Z,16.30
2023-05-19T11:06:30.216Z,16.30
2023-05-19T11:09:04.626Z,16.30
2023-05-19T11:11:47.753Z,16.20
2023-05-19T11:14:23.221Z,16.30
2023-05-19T11:16:58.199Z,15.70
2023-05-19T11:19:32.217Z,15.70
2023-05-19T11:22:11.841Z,15.60
2023-05-19T11:24:46.441Z,15.70
2023-05-19T11:27:24.246Z,15.80
2023-05-19T11:29:56.998Z,16.00
2023-05-19T11:32:31.415Z,15.80
2023-05-19T11:35:03.790Z,15.80
2023-05-19T11:37:36.962Z,15.90
2023-05-19T11:40:10.908Z,16.00
2023-05-19T11:42:42.590Z,16.10
2023-05-19T11:45:15.554Z,16.20
2023-05-19T11:48:01.216Z,16.30
2023-05-19T11:50:21.980Z,16.40
2023-05-19T11:52:54.048Z,16.40
2023-05-19T11:55:25.522Z,16.40
2023-05-19T11:58:04.564Z,16.40
2023-05-19T12:00:37.857Z,16.30
2023-05-19T12:03:10.468Z,16.20
2023-05-19T12:05:47.145Z,16.20
2023-05-19T12:08:19.870Z,16.20
2023-05-19T12:10:51.740Z,16.10
2023-05-19T12:13:24.529Z,16.00
2023-05-19T12:15:57.521Z,16.00
2023-05-19T12:18:32.510Z,16.20
2023-05-19T12:21:04.299Z,16.30
2023-05-19T12:23:37.051Z,16.40
2023-05-19T12:26:08.835Z,16.60
2023-05-19T12:28:41.555Z,16.70
2023-05-19T12:31:13.116Z,16.70
2023-05-19T12:33:44.801Z,16.80
2023-05-19T12:36:17.171Z,16.80
2023-05-19T12:38:51.070Z,16.90
2023-05-19T12:41:23.007Z,17.00
2023-05-19T12:43:55.221Z,17.00
2023-05-19T12:46:26.958Z,17.10
2023-05-19T12:49:01.468Z,17.30
2023-05-19T12:51:33.230Z,17.40
2023-05-19T12:54:05.382Z,17.50
2023-05-19T12:56:37.177Z,17.80
2023-05-19T12:59:08.811Z,17.80
2023-05-19T13:01:40.376Z,17.80
2023-05-19T13:04:12.071Z,17.20
2023-05-19T13:06:44.111Z,16.90
2023-05-19T13:09:16.992Z,17.10
2023-05-19T13:11:52.243Z,17.40
2023-05-19T13:14:24.045Z,17.70
2023-05-19T13:16:55.656Z,17.80
2023-05-19T13:19:27.766Z,17.70
2023-05-19T13:21:59.417Z,17.80
2023-05-19T13:24:30.866Z,17.90
2023-05-19T13:27:03.372Z,18.00
2023-05-19T13:29:34.906Z,18.10
2023-05-19T13:32:08.432Z,18.00
2023-05-19T13:34:40.579Z,18.10
2023-05-19T13:37:12.215Z,18.00
2023-05-19T13:39:43.955Z,18.00
2023-05-19T13:42:16.415Z,18.40
2023-05-19T13:44:48.265Z,18.40
2023-05-19T13:47:19.998Z,18.40
2023-05-19T13:49:52.161Z,18.50
2023-05-19T13:52:23.698Z,18.40
2023-05-19T13:54:56.565Z,18.30
2023-05-19T13:57:28.418Z,18.30
2023-05-19T14:00:03.750Z,18.30
2023-05-19T14:02:36.405Z,18.20
2023-05-19T14:05:09.478Z,18.20
2023-05-19T14:07:41.452Z,18.10
2023-05-19T14:10:13.467Z,18.10
2023-05-19T14:13:14.103Z,18.00
2023-05-19T14:15:18.808Z,18.00
2023-05-19T14:17:50.336Z,18.00
2023-05-19T14:20:21.873Z,17.90
2023-05-19T14:22:53.377Z,17.80
2023-05-19T14:25:24.813Z,17.80
2023-05-19T14:27:56.349Z,17.70
2023-05-19T14:30:27.892Z,17.70
2023-05-19T14:32:59.851Z,17.60
2023-05-19T14:35:31.394Z,17.40
2023-05-19T14:38:03.149Z,17.40
2023-05-19T14:40:35.353Z,17.40
2023-05-19T14:43:07.138Z,17.40
2023-05-19T14:45:41.398Z,17.30
2023-05-19T14:48:13.244Z,17.10
2023-05-19T14:50:44.766Z,17.00
2023-05-19T14:53:16.878Z,16.90
2023-05-19T14:55:50.781Z,16.80
2023-05-19T14:58:29.063Z,16.70
2023-05-19T15:00:55.632Z,16.60
2023-05-19T15:03:27.341Z,16.60
2023-05-19T15:05:59.007Z,16.50
2023-05-19T15:08:30.645Z,16.50
2023-05-19T15:11:02.293Z,16.50
2023-05-19T15:13:33.826Z,16.60
2023-05-19T15:18:41.975Z,16.50
2023-05-19T15:21:13.532Z,16.40
2023-05-19T15:23:45.002Z,16.30
2023-05-19T15:26:16.680Z,16.30
2023-05-19T15:28:48.148Z,16.30
2023-05-19T15:31:19.824Z,16.30
2023-05-19T15:33:51.394Z,16.30
2023-05-19T15:36:23.350Z,16.10
2023-05-19T15:38:59.942Z,16.10
2023-05-19T15:41:31.578Z,16.10
2023-05-19T15:44:03.707Z,16.10
2023-05-19T15:46:35.857Z,16.10
2023-05-19T15:49:07.613Z,16.10
2023-05-19T15:51:39.212Z,16.10
2023-05-19T15:54:10.819Z,16.10
2023-05-19T15:56:42.363Z,16.10
2023-05-19T15:59:13.890Z,16.10
2023-05-19T16:01:45.512Z,16.10
2023-05-19T16:04:17.891Z,16.10
2023-05-19T16:06:49.612Z,16.00
2023-05-19T16:09:21.090Z,16.00
2023-05-19T16:11:52.814Z,15.90
2023-05-19T16:14:24.449Z,15.90
2023-05-19T16:16:56.726Z,15.90
2023-05-19T16:19:28.397Z,15.90
2023-05-19T16:22:00.046Z,16.00
2023-05-19T16:24:31.523Z,16.00
2023-05-19T16:27:03.193Z,15.90
2023-05-19T16:29:34.831Z,15.90
2023-05-19T16:32:07.405Z,15.90
2023-05-19T16:34:40.063Z,15.80
2023-05-19T16:37:11.570Z,15.70
2023-05-19T16:39:43.788Z,15.70
2023-05-19T16:42:15.321Z,15.70
2023-05-19T16:44:47.032Z,15.50
2023-05-19T16:47:18.471Z,15.50
2023-05-19T16:49:49.983Z,15.40
2023-05-19T16:52:22.841Z,15.30
2023-05-19T16:54:54.365Z,15.30
2023-05-19T16:57:26.008Z,15.20
2023-05-19T16:59:59.091Z,15.20
2023-05-19T17:02:30.883Z,15.20
2023-05-19T17:05:02.591Z,15.20
2023-05-19T17:07:35.082Z,15.10
2023-05-19T17:10:07.843Z,15.00
2023-05-19T17:12:39.351Z,15.00
2023-05-19T17:15:11.930Z,15.00
2023-05-19T17:17:43.514Z,15.10
2023-05-19T17:20:16.458Z,15.10
2023-05-19T17:22:48.134Z,15.00
2023-05-19T17:25:19.765Z,15.00
2023-05-19T17:27:52.526Z,15.00
2023-05-19T17:30:26.156Z,14.90
2023-05-19T17:32:58.936Z,14.90
2023-05-19T17:35:30.612Z,14.90
2023-05-19T17:38:02.182Z,14.80
2023-05-19T17:40:34.195Z,14.90
2023-05-19T17:43:08.333Z,14.80
2023-05-19T17:45:39.898Z,14.70
2023-05-19T17:48:11.703Z,14.80
2023-05-19T17:50:43.768Z,14.70
2023-05-19T17:53:16.596Z,14.70
2023-05-19T17:55:51.767Z,14.60
2023-05-19T17:58:24.208Z,14.60
2023-05-19T18:01:00.467Z,14.60
2023-05-19T18:03:33.274Z,14.60
2023-05-19T18:06:07.749Z,14.60
2023-05-19T18:08:41.661Z,14.50
2023-05-19T18:11:15.550Z,14.50
2023-05-19T18:13:47.086Z,14.50
2023-05-19T18:16:18.648Z,14.40
2023-05-19T18:18:50.901Z,14.30
2023-05-19T18:21:24.305Z,14.40
2023-05-19T18:23:56.215Z,14.30
2023-05-19T18:26:27.852Z,14.30
2023-05-19T18:29:00.986Z,14.20
2023-05-19T18:31:32.643Z,14.20
2023-05-19T18:34:05.475Z,14.20
2023-05-19T18:36:37.592Z,14.20
2023-05-19T18:39:09.047Z,14.10
2023-05-19T18:41:42.734Z,14.10
2023-05-19T18:44:14.450Z,14.10
2023-05-19T18:46:46.655Z,14.10
2023-05-19T18:49:18.643Z,14.00
2023-05-19T18:51:50.117Z,14.00
2023-05-19T18:54:21.830Z,13.90
2023-05-19T18:56:53.283Z,13.90
2023-05-19T18:59:25.985Z,14.00
2023-05-19T19:01:57.460Z,13.90
2023-05-19T19:04:29.026Z,13.90
2023-05-19T19:07:01.224Z,13.90
2023-05-19T19:09:32.742Z,13.80
2023-05-19T19:12:04.231Z,13.70
2023-05-19T19:14:36.251Z,13.70
2023-05-19T19:17:10.098Z,13.70
2023-05-19T19:19:41.857Z,13.60
2023-05-19T19:22:13.727Z,13.60
2023-05-19T19:24:45.434Z,13.50
2023-05-19T19:27:17.649Z,13.50
2023-05-19T19:29:49.345Z,13.40
2023-05-19T19:32:21.294Z,13.40
2023-05-19T19:34:53.380Z,13.40
2023-05-19T19:37:24.831Z,13.40
2023-05-19T19:39:56.490Z,13.40
2023-05-19T19:42:28.261Z,13.40
2023-05-19T19:44:59.966Z,13.30
2023-05-19T19:47:32.546Z,13.40
2023-05-19T19:50:05.815Z,13.50
2023-05-19T19:52:37.452Z,13.50
2023-05-19T19:55:11.206Z,13.60
2023-05-19T19:57:44.294Z,13.60
2023-05-19T20:00:18.339Z,13.60
2023-05-19T20:03:03.610Z,13.60
2023-05-19T20:05:23.499Z,13.50
2023-05-19T20:07:57.018Z,13.50
2023-05-19T20:10:28.796Z,13.50
2023-05-19T20:13:00.306Z,13.50
2023-05-19T20:15:32.338Z,13.60
2023-05-19T20:18:04.750Z,13.60
2023-05-19T20:20:36.510Z,13.60
2023-05-19T20:23:08.268Z,13.60
2023-05-19T20:25:54.374Z,13.60
2023-05-19T20:28:31.865Z,13.40
2023-05-19T20:31:04.321Z,13.40
2023-05-19T20:33:35.926Z,13.30
2023-05-19T20:36:07.966Z,13.30
2023-05-19T20:38:39.422Z,13.20
2023-05-19T20:41:11.130Z,13.10
2023-05-19T20:43:43.031Z,13.10
2023-05-19T20:46:15.132Z,13.20
2023-05-19T20:48:46.815Z,13.20
2023-05-19T20:51:18.390Z,13.20
2023-05-19T20:53:50.450Z,13.30
2023-05-19T20:56:22.874Z,13.40
2023-05-19T20:58:54.510Z,13.40
2023-05-19T21:01:26.090Z,13.40
2023-05-19T21:03:57.663Z,13.40
2023-05-19T21:06:29.338Z,13.40
2023-05-19T21:09:03.484Z,13.30
2023-05-19T21:11:35.625Z,13.30
2023-05-19T21:14:09.375Z,13.30
2023-05-19T21:16:42.324Z,13.20
2023-05-19T21:19:14.017Z,13.20
2023-05-19T21:21:47.423Z,13.20
2023-05-19T21:24:19.028Z,13.20
2023-05-19T21:26:51.474Z,13.20
2023-05-19T21:29:23.186Z,13.20
2023-05-19T21:31:56.266Z,13.20
2023-05-19T21:34:28.490Z,13.20
2023-05-19T21:37:00.095Z,13.30
2023-05-19T21:39:31.659Z,13.30
2023-05-19T21:42:03.251Z,13.40
2023-05-19T21:44:34.937Z,13.40
2023-05-19T21:47:08.636Z,13.30
2023-05-19T21:49:40.638Z,13.30
2023-05-19T21:52:13.033Z,13.40
2023-05-19T21:54:44.845Z,13.30
2023-05-19T21:57:16.603Z,13.30
2023-05-19T21:59:50.222Z,13.40
2023-05-19T22:02:21.821Z,13.40
2023-05-19T22:04:53.579Z,13.30
2023-05-19T22:07:27.990Z,13.20
2023-05-19T22:10:01.504Z,13.30
2023-05-19T22:12:34.051Z,13.30
2023-05-19T22:15:07.103Z,13.30
2023-05-19T22:17:38.672Z,13.30
2023-05-19T22:20:12.642Z,13.30
2023-05-19T22:22:44.151Z,13.30
2023-05-19T22:25:15.834Z,13.30
2023-05-19T22:27:47.460Z,13.20
2023-05-19T22:30:19.082Z,13.20
2023-05-19T22:32:51.752Z,13.10
2023-05-19T22:35:24.829Z,13.10
2023-05-19T22:37:56.430Z,13.10
2023-05-19T22:40:30.028Z,13.10
2023-05-19T22:43:01.693Z,13.10
2023-05-19T22:45:35.423Z,13.10
2023-05-19T22:48:08.433Z,13.00
2023-05-19T22:50:40.151Z,13.10
2023-05-19T22:53:11.703Z,13.10
2023-05-19T22:55:43.448Z,13.10
2023-05-19T22:58:14.946Z,13.00
2023-05-19T23:00:46.484Z,13.00
2023-05-19T23:03:18.208Z,13.10
2023-05-19T23:05:50.691Z,13.10
2023-05-19T23:08:22.184Z,13.10
2023-05-19T23:10:53.799Z,13.20
2023-05-19T23:13:25.809Z,13.20
2023-05-19T23:15:57.330Z,13.20
2023-05-19T23:18:28.864Z,13.20
2023-05-19T23:21:00.565Z,13.20
2023-05-19T23:23:32.252Z,13.20
2023-05-19T23:26:03.773Z,13.20
2023-05-19T23:28:35.375Z,13.10
2023-05-19T23:31:07.158Z,13.10
2023-05-19T23:33:38.807Z,13.10
2023-05-19T23:36:12.586Z,13.10
2023-05-19T23:38:44.108Z,13.10
2023-05-19T23:41:15.556Z,13.10
2023-05-19T23:43:48.132Z,13.00
2023-05-19T23:46:19.637Z,13.00
2023-05-19T23:48:51.210Z,13.00
2023-05-19T23:51:22.657Z,13.00
2023-05-19T23:53:54.183Z,13.00
2023-05-19T23:56:25.706Z,13.00
2023-05-19T23:58:57.293Z,13.00
